sensor_id;sensor_type;location;lat;lon;timestamp;temperature;humidity
10386;DHT22;34307;51.332;12.334;2022-09-09T04:18:21;13.20;99.90
10386;DHT22;34307;51.332;12.334;2022-09-09T04:20:51;13.00;99.90
10386;DHT22;34307;51.332;12.334;2022-09-09T04:23:19;13.10;99.90
10386;DHT22;34307;51.332;12.334;2022-09-09T04:25:49;13.10;99.90
10386;DHT22;34307;51.332;12.334;2022-09-09T04:28:18;13.20;99.90
10386;DHT22;34307;51.332;12.334;2022-09-09T04:30:47;13.20;99.90
10386;DHT22;34307;51.332;12.334;2022-09-09T04:33:15;13.20;99.90
10386;DHT22;34307;51.332;12.334;2022-09-09T04:35:46;13.20;99.90
10386;DHT22;34307;51.332;12.334;2022-09-09T04:38:15;13.20;99.90
10386;DHT22;34307;51.332;12.334;2022-09-09T04:40:43;13.20;99.90
10386;DHT22;34307;51.332;12.334;2022-09-09T04:43:12;13.20;99.90
10386;DHT22;34307;51.332;12.334;2022-09-09T09:55:22;21.30;93.20
10386;DHT22;34307;51.332;12.334;2022-09-09T10:01:32;21.70;95.20
10386;DHT22;34307;51.332;12.334;2022-09-09T10:04:20;21.70;91.50
10386;DHT22;34307;51.332;12.334;2022-09-09T10:06:58;21.40;95.10
10386;DHT22;34307;51.332;12.334;2022-09-09T10:09:37;21.40;93.80
10386;DHT22;34307;51.332;12.334;2022-09-09T10:12:19;21.30;98.10
10386;DHT22;34307;51.332;12.334;2022-09-09T10:15:02;21.30;98.50
10386;DHT22;34307;51.332;12.334;2022-09-09T10:17:38;21.20;96.90
10386;DHT22;34307;51.332;12.334;2022-09-09T10:20:28;21.30;96.50
10386;DHT22;34307;51.332;12.334;2022-09-09T10:26:02;21.30;94.60
10386;DHT22;34307;51.332;12.334;2022-09-09T10:29:17;21.40;92.70
10386;DHT22;34307;51.332;12.334;2022-09-09T10:32:38;21.50;91.90
10386;DHT22;34307;51.332;12.334;2022-09-09T10:55:52;21.00;99.90
10386;DHT22;34307;51.332;12.334;2022-09-09T10:58:46;21.60;98.50
10386;DHT22;34307;51.332;12.334;2022-09-09T11:01:30;21.90;74.50
10386;DHT22;34307;51.332;12.334;2022-09-09T11:04:20;22.00;63.60
10386;DHT22;34307;51.332;12.334;2022-09-09T11:06:54;21.80;64.10
10386;DHT22;34307;51.332;12.334;2022-09-09T11:10:02;21.80;63.20
10386;DHT22;34307;51.332;12.334;2022-09-09T11:19:33;21.70;62.50
10386;DHT22;34307;51.332;12.334;2022-09-09T11:38:25;24.10;43.20
10386;DHT22;34307;51.332;12.334;2022-09-09T11:41:49;24.10;39.00
10386;DHT22;34307;51.332;12.334;2022-09-09T11:45:38;23.50;39.90
10386;DHT22;34307;51.332;12.334;2022-09-09T12:00:41;23.70;35.90
10386;DHT22;34307;51.332;12.334;2022-09-09T12:04:40;23.80;38.30
10386;DHT22;34307;51.332;12.334;2022-09-09T12:12:04;24.00;38.20
10386;DHT22;34307;51.332;12.334;2022-09-09T12:15:22;24.20;35.80
10386;DHT22;34307;51.332;12.334;2022-09-09T12:18:14;24.60;33.30
10386;DHT22;34307;51.332;12.334;2022-09-09T12:28:43;24.70;32.00
10386;DHT22;34307;51.332;12.334;2022-09-09T12:31:18;25.20;28.40
10386;DHT22;34307;51.332;12.334;2022-09-09T12:33:50;25.50;29.20
10386;DHT22;34307;51.332;12.334;2022-09-09T12:36:21;25.50;27.80
10386;DHT22;34307;51.332;12.334;2022-09-09T12:38:50;25.40;21.60
10386;DHT22;34307;51.332;12.334;2022-09-09T12:41:20;25.30;22.60
10386;DHT22;34307;51.332;12.334;2022-09-09T12:43:49;25.60;20.90
10386;DHT22;34307;51.332;12.334;2022-09-09T12:46:29;25.50;19.30
10386;DHT22;34307;51.332;12.334;2022-09-09T12:49:00;24.50;19.90
10386;DHT22;34307;51.332;12.334;2022-09-09T12:51:30;24.70;19.90
10386;DHT22;34307;51.332;12.334;2022-09-09T12:53:59;25.60;19.40
10386;DHT22;34307;51.332;12.334;2022-09-09T12:56:30;25.70;16.90
10386;DHT22;34307;51.332;12.334;2022-09-09T12:58:59;26.60;15.50
10386;DHT22;34307;51.332;12.334;2022-09-09T13:02:21;26.40;12.20
10386;DHT22;34307;51.332;12.334;2022-09-09T13:08:37;26.60;11.20
10386;DHT22;34307;51.332;12.334;2022-09-09T13:14:53;25.80;10.80
10386;DHT22;34307;51.332;12.334;2022-09-09T13:17:57;25.50;10.10
10386;DHT22;34307;51.332;12.334;2022-09-09T13:20:57;25.00;10.10
10386;DHT22;34307;51.332;12.334;2022-09-09T13:23:49;24.00;10.60
10386;DHT22;34307;51.332;12.334;2022-09-09T14:00:22;22.10;46.20
10386;DHT22;34307;51.332;12.334;2022-09-09T14:02:58;20.60;51.10
10386;DHT22;34307;51.332;12.334;2022-09-09T14:16:30;19.90;89.40
10386;DHT22;34307;51.332;12.334;2022-09-09T14:27:01;20.10;86.40
10386;DHT22;34307;51.332;12.334;2022-09-09T14:34:28;20.20;75.40
10386;DHT22;34307;51.332;12.334;2022-09-09T14:37:48;20.50;56.10
10386;DHT22;34307;51.332;12.334;2022-09-09T14:40:46;20.60;63.80
10386;DHT22;34307;51.332;12.334;2022-09-09T14:43:51;20.80;59.50
10386;DHT22;34307;51.332;12.334;2022-09-09T14:46:30;20.90;61.30
10386;DHT22;34307;51.332;12.334;2022-09-09T14:49:49;21.00;55.30
10386;DHT22;34307;51.332;12.334;2022-09-09T15:10:39;27.30;22.20
10386;DHT22;34307;51.332;12.334;2022-09-09T15:26:53;26.30;16.70
10386;DHT22;34307;51.332;12.334;2022-09-09T15:29:21;25.50;20.00
10386;DHT22;34307;51.332;12.334;2022-09-09T15:31:49;26.40;14.20
10386;DHT22;34307;51.332;12.334;2022-09-09T15:34:18;26.50;6.80
10386;DHT22;34307;51.332;12.334;2022-09-09T15:36:46;26.20;6.90
10386;DHT22;34307;51.332;12.334;2022-09-09T15:39:15;26.60;4.70
10386;DHT22;34307;51.332;12.334;2022-09-09T15:41:45;26.50;2.10
10386;DHT22;34307;51.332;12.334;2022-09-09T15:44:15;26.70;4.80
10386;DHT22;34307;51.332;12.334;2022-09-09T15:46:44;26.90;1.80
10386;DHT22;34307;51.332;12.334;2022-09-09T15:49:15;26.90;1.00
10386;DHT22;34307;51.332;12.334;2022-09-09T15:51:45;27.10;1.00
10386;DHT22;34307;51.332;12.334;2022-09-09T15:54:15;26.60;1.00
10386;DHT22;34307;51.332;12.334;2022-09-09T15:56:44;26.20;1.00
10386;DHT22;34307;51.332;12.334;2022-09-09T15:59:14;26.70;1.20
10386;DHT22;34307;51.332;12.334;2022-09-09T16:01:42;26.90;1.00
10386;DHT22;34307;51.332;12.334;2022-09-09T16:04:11;27.00;1.00
10386;DHT22;34307;51.332;12.334;2022-09-09T16:06:39;26.90;1.00
10386;DHT22;34307;51.332;12.334;2022-09-09T16:09:08;27.30;1.00
10386;DHT22;34307;51.332;12.334;2022-09-09T16:11:38;26.30;1.00
10386;DHT22;34307;51.332;12.334;2022-09-09T16:14:07;27.60;1.00
10386;DHT22;34307;51.332;12.334;2022-09-09T16:16:37;27.20;1.00
10386;DHT22;34307;51.332;12.334;2022-09-09T16:19:06;26.70;1.00
10386;DHT22;34307;51.332;12.334;2022-09-09T16:21:37;26.70;1.00
10386;DHT22;34307;51.332;12.334;2022-09-09T16:24:08;26.70;1.00
10386;DHT22;34307;51.332;12.334;2022-09-09T16:26:38;25.30;1.00
10386;DHT22;34307;51.332;12.334;2022-09-09T16:29:06;25.70;1.00
10386;DHT22;34307;51.332;12.334;2022-09-09T16:31:37;26.10;1.60
10386;DHT22;34307;51.332;12.334;2022-09-09T16:34:06;25.50;1.00
10386;DHT22;34307;51.332;12.334;2022-09-09T16:36:36;25.00;1.00
10386;DHT22;34307;51.332;12.334;2022-09-09T16:39:07;24.40;3.60
10386;DHT22;34307;51.332;12.334;2022-09-09T16:41:36;24.00;7.30
10386;DHT22;34307;51.332;12.334;2022-09-09T16:44:06;23.80;7.80
10386;DHT22;34307;51.332;12.334;2022-09-09T16:46:36;23.60;11.10
10386;DHT22;34307;51.332;12.334;2022-09-09T16:49:06;23.40;14.30
10386;DHT22;34307;51.332;12.334;2022-09-09T16:51:36;22.80;20.60
10386;DHT22;34307;51.332;12.334;2022-09-09T16:54:06;22.40;28.90
10386;DHT22;34307;51.332;12.334;2022-09-09T16:56:36;22.10;37.30
10386;DHT22;34307;51.332;12.334;2022-09-09T16:59:07;21.80;42.30
10386;DHT22;34307;51.332;12.334;2022-09-09T17:01:38;21.50;47.50
10386;DHT22;34307;51.332;12.334;2022-09-09T17:04:09;21.30;52.00
10386;DHT22;34307;51.332;12.334;2022-09-09T17:06:37;21.60;54.90
10386;DHT22;34307;51.332;12.334;2022-09-09T17:09:07;21.90;49.80
10386;DHT22;34307;51.332;12.334;2022-09-09T17:11:37;22.30;50.40
10386;DHT22;34307;51.332;12.334;2022-09-09T17:14:06;22.40;50.20
10386;DHT22;34307;51.332;12.334;2022-09-09T17:16:37;23.00;47.30
10386;DHT22;34307;51.332;12.334;2022-09-09T17:19:07;23.00;45.40
10386;DHT22;34307;51.332;12.334;2022-09-09T17:21:37;22.70;44.00
10386;DHT22;34307;51.332;12.334;2022-09-09T17:24:25;22.30;48.00
10386;DHT22;34307;51.332;12.334;2022-09-09T17:26:56;21.80;50.00
10386;DHT22;34307;51.332;12.334;2022-09-09T17:29:24;21.50;48.70
10386;DHT22;34307;51.332;12.334;2022-09-09T17:31:54;21.00;49.10
10386;DHT22;34307;51.332;12.334;2022-09-09T17:34:23;20.70;52.40
10386;DHT22;34307;51.332;12.334;2022-09-09T17:36:51;20.40;52.20
10386;DHT22;34307;51.332;12.334;2022-09-09T17:39:20;20.20;51.30
10386;DHT22;34307;51.332;12.334;2022-09-09T17:41:48;20.00;52.30
10386;DHT22;34307;51.332;12.334;2022-09-09T17:44:16;19.80;52.50
10386;DHT22;34307;51.332;12.334;2022-09-09T17:46:46;19.70;55.20
10386;DHT22;34307;51.332;12.334;2022-09-09T17:49:16;19.50;59.50
10386;DHT22;34307;51.332;12.334;2022-09-09T17:51:45;19.40;61.30
10386;DHT22;34307;51.332;12.334;2022-09-09T17:54:16;19.30;63.80
10386;DHT22;34307;51.332;12.334;2022-09-09T17:56:44;19.10;66.40
10386;DHT22;34307;51.332;12.334;2022-09-09T17:59:15;19.00;70.10
10386;DHT22;34307;51.332;12.334;2022-09-09T18:01:44;18.90;71.50
10386;DHT22;34307;51.332;12.334;2022-09-09T18:04:15;18.70;78.60
10386;DHT22;34307;51.332;12.334;2022-09-09T18:06:45;18.60;79.50
10386;DHT22;34307;51.332;12.334;2022-09-09T18:09:15;18.60;78.80
10386;DHT22;34307;51.332;12.334;2022-09-09T18:11:45;18.50;83.70
10386;DHT22;34307;51.332;12.334;2022-09-09T18:14:16;18.40;81.60
10386;DHT22;34307;51.332;12.334;2022-09-09T18:16:46;18.50;83.30
10386;DHT22;34307;51.332;12.334;2022-09-09T18:19:18;18.40;83.20
10386;DHT22;34307;51.332;12.334;2022-09-09T18:21:46;18.30;88.30
10386;DHT22;34307;51.332;12.334;2022-09-09T18:24:16;18.20;90.90
10386;DHT22;34307;51.332;12.334;2022-09-09T18:26:45;18.20;90.40
10386;DHT22;34307;51.332;12.334;2022-09-09T18:29:15;18.10;92.00
10386;DHT22;34307;51.332;12.334;2022-09-09T18:31:46;18.10;94.10
10386;DHT22;34307;51.332;12.334;2022-09-09T18:34:17;18.10;94.60
10386;DHT22;34307;51.332;12.334;2022-09-09T18:36:47;18.00;97.30
10386;DHT22;34307;51.332;12.334;2022-09-09T18:39:20;18.00;99.40
10386;DHT22;34307;51.332;12.334;2022-09-09T18:41:52;17.90;99.90
10386;DHT22;34307;51.332;12.334;2022-09-09T18:44:23;17.90;99.90
10386;DHT22;34307;51.332;12.334;2022-09-09T18:46:52;17.80;99.90
10386;DHT22;34307;51.332;12.334;2022-09-09T18:49:23;17.80;99.90
10386;DHT22;34307;51.332;12.334;2022-09-09T18:51:51;17.70;99.90
10386;DHT22;34307;51.332;12.334;2022-09-09T18:54:21;17.70;99.90
10386;DHT22;34307;51.332;12.334;2022-09-09T18:56:50;17.70;99.90
10386;DHT22;34307;51.332;12.334;2022-09-09T18:59:20;17.60;99.90
10386;DHT22;34307;51.332;12.334;2022-09-09T19:01:50;17.60;99.90
10386;DHT22;34307;51.332;12.334;2022-09-09T19:04:19;17.50;99.90
10386;DHT22;34307;51.332;12.334;2022-09-09T19:06:50;17.50;99.90
10386;DHT22;34307;51.332;12.334;2022-09-09T19:09:25;17.40;99.90
10386;DHT22;34307;51.332;12.334;2022-09-09T19:11:53;17.30;99.90
10386;DHT22;34307;51.332;12.334;2022-09-09T19:14:21;17.20;99.90
10386;DHT22;34307;51.332;12.334;2022-09-09T19:16:49;17.20;99.90
10386;DHT22;34307;51.332;12.334;2022-09-09T19:19:20;17.10;99.90
10386;DHT22;34307;51.332;12.334;2022-09-09T19:21:50;17.00;99.90
10386;DHT22;34307;51.332;12.334;2022-09-09T19:24:19;17.10;99.90
10386;DHT22;34307;51.332;12.334;2022-09-09T19:26:49;17.00;99.90
10386;DHT22;34307;51.332;12.334;2022-09-09T19:29:19;16.90;99.90
10386;DHT22;34307;51.332;12.334;2022-09-09T19:31:48;16.80;99.90
10386;DHT22;34307;51.332;12.334;2022-09-09T19:34:37;16.70;99.90
10386;DHT22;34307;51.332;12.334;2022-09-09T19:37:06;16.70;99.90
10386;DHT22;34307;51.332;12.334;2022-09-09T19:39:34;16.60;99.90
10386;DHT22;34307;51.332;12.334;2022-09-09T19:42:02;16.60;99.90
10386;DHT22;34307;51.332;12.334;2022-09-09T19:44:30;16.70;99.90
10386;DHT22;34307;51.332;12.334;2022-09-09T19:46:58;16.60;99.90
10386;DHT22;34307;51.332;12.334;2022-09-09T19:49:26;16.50;99.90
10386;DHT22;34307;51.332;12.334;2022-09-09T19:51:56;16.50;99.90
10386;DHT22;34307;51.332;12.334;2022-09-09T19:54:25;16.50;99.90
10386;DHT22;34307;51.332;12.334;2022-09-09T19:56:53;16.50;99.90
10386;DHT22;34307;51.332;12.334;2022-09-09T19:59:22;16.50;99.90
10386;DHT22;34307;51.332;12.334;2022-09-09T20:01:50;16.50;99.90
10386;DHT22;34307;51.332;12.334;2022-09-09T20:04:18;16.50;99.90
10386;DHT22;34307;51.332;12.334;2022-09-09T20:06:47;16.50;99.90
10386;DHT22;34307;51.332;12.334;2022-09-09T20:09:16;16.50;99.90
10386;DHT22;34307;51.332;12.334;2022-09-09T20:11:47;16.50;99.90
10386;DHT22;34307;51.332;12.334;2022-09-09T20:14:16;16.40;99.90
10386;DHT22;34307;51.332;12.334;2022-09-09T20:16:44;16.50;99.90
10386;DHT22;34307;51.332;12.334;2022-09-09T20:19:14;16.40;99.90
10386;DHT22;34307;51.332;12.334;2022-09-09T20:21:43;16.40;99.90
10386;DHT22;34307;51.332;12.334;2022-09-09T20:24:15;16.50;99.90
10386;DHT22;34307;51.332;12.334;2022-09-09T20:26:46;16.50;99.90
10386;DHT22;34307;51.332;12.334;2022-09-09T20:29:16;16.50;99.90
10386;DHT22;34307;51.332;12.334;2022-09-09T20:31:45;16.60;99.90
10386;DHT22;34307;51.332;12.334;2022-09-09T20:34:14;16.50;99.90
10386;DHT22;34307;51.332;12.334;2022-09-09T20:36:44;16.60;99.90
10386;DHT22;34307;51.332;12.334;2022-09-09T20:39:13;16.60;99.90
10386;DHT22;34307;51.332;12.334;2022-09-09T20:41:43;16.70;99.90
10386;DHT22;34307;51.332;12.334;2022-09-09T20:44:14;16.70;99.90
10386;DHT22;34307;51.332;12.334;2022-09-09T20:46:44;16.60;99.90
10386;DHT22;34307;51.332;12.334;2022-09-09T20:49:15;16.60;99.90
10386;DHT22;34307;51.332;12.334;2022-09-09T20:51:47;16.50;99.90
10386;DHT22;34307;51.332;12.334;2022-09-09T20:54:18;16.50;99.90
10386;DHT22;34307;51.332;12.334;2022-09-09T20:56:46;16.40;99.90
10386;DHT22;34307;51.332;12.334;2022-09-09T20:59:19;16.40;99.90
10386;DHT22;34307;51.332;12.334;2022-09-09T21:01:48;16.40;99.90
10386;DHT22;34307;51.332;12.334;2022-09-09T21:04:18;16.40;99.90
10386;DHT22;34307;51.332;12.334;2022-09-09T21:06:47;16.30;99.90
10386;DHT22;34307;51.332;12.334;2022-09-09T21:09:16;16.30;99.90
10386;DHT22;34307;51.332;12.334;2022-09-09T21:11:44;16.20;99.90
10386;DHT22;34307;51.332;12.334;2022-09-09T21:14:13;16.10;99.90
10386;DHT22;34307;51.332;12.334;2022-09-09T21:16:43;16.00;99.90
10386;DHT22;34307;51.332;12.334;2022-09-09T21:19:11;15.90;99.90
10386;DHT22;34307;51.332;12.334;2022-09-09T21:21:39;15.70;99.90
10386;DHT22;34307;51.332;12.334;2022-09-09T21:24:08;15.60;99.90
10386;DHT22;34307;51.332;12.334;2022-09-09T21:26:36;15.50;99.90
10386;DHT22;34307;51.332;12.334;2022-09-09T21:29:05;15.40;99.90
10386;DHT22;34307;51.332;12.334;2022-09-09T21:31:33;15.30;99.90
10386;DHT22;34307;51.332;12.334;2022-09-09T21:34:02;15.20;99.90
10386;DHT22;34307;51.332;12.334;2022-09-09T21:36:31;15.20;99.90
10386;DHT22;34307;51.332;12.334;2022-09-09T21:38:59;15.20;99.90
10386;DHT22;34307;51.332;12.334;2022-09-09T21:41:27;15.20;99.90
10386;DHT22;34307;51.332;12.334;2022-09-09T21:43:55;15.10;99.90
10386;DHT22;34307;51.332;12.334;2022-09-09T21:46:23;15.10;99.90
10386;DHT22;34307;51.332;12.334;2022-09-09T21:48:53;15.10;99.90
10386;DHT22;34307;51.332;12.334;2022-09-09T21:51:24;15.10;99.90
10386;DHT22;34307;51.332;12.334;2022-09-09T21:53:54;15.10;99.90
10386;DHT22;34307;51.332;12.334;2022-09-09T21:56:23;15.00;99.90
10386;DHT22;34307;51.332;12.334;2022-09-09T21:58:56;15.00;99.90
10386;DHT22;34307;51.332;12.334;2022-09-09T22:01:25;14.90;99.90
10386;DHT22;34307;51.332;12.334;2022-09-09T22:03:53;14.80;99.90
10386;DHT22;34307;51.332;12.334;2022-09-09T22:06:21;14.80;99.90
10386;DHT22;34307;51.332;12.334;2022-09-09T22:08:50;14.80;99.90
10386;DHT22;34307;51.332;12.334;2022-09-09T22:11:20;14.90;99.90
10386;DHT22;34307;51.332;12.334;2022-09-09T22:13:51;14.90;99.90
10386;DHT22;34307;51.332;12.334;2022-09-09T22:16:21;15.00;99.90
10386;DHT22;34307;51.332;12.334;2022-09-09T22:18:51;15.00;99.90
10386;DHT22;34307;51.332;12.334;2022-09-09T22:21:19;15.00;99.90
10386;DHT22;34307;51.332;12.334;2022-09-09T22:23:52;15.10;99.90
10386;DHT22;34307;51.332;12.334;2022-09-09T22:26:22;15.10;99.90
10386;DHT22;34307;51.332;12.334;2022-09-09T22:28:50;15.10;99.90
10386;DHT22;34307;51.332;12.334;2022-09-09T22:31:19;15.20;99.90
10386;DHT22;34307;51.332;12.334;2022-09-09T22:33:48;15.20;99.90
10386;DHT22;34307;51.332;12.334;2022-09-09T22:36:17;15.20;99.90
10386;DHT22;34307;51.332;12.334;2022-09-09T22:38:46;15.30;99.90
10386;DHT22;34307;51.332;12.334;2022-09-09T22:41:16;15.30;99.90
10386;DHT22;34307;51.332;12.334;2022-09-09T22:43:44;15.30;99.90
10386;DHT22;34307;51.332;12.334;2022-09-09T22:46:13;15.30;99.90
10386;DHT22;34307;51.332;12.334;2022-09-09T22:48:41;15.30;99.90
10386;DHT22;34307;51.332;12.334;2022-09-09T22:51:11;15.30;99.90
10386;DHT22;34307;51.332;12.334;2022-09-09T22:53:40;15.20;99.90
10386;DHT22;34307;51.332;12.334;2022-09-09T22:56:13;15.20;99.90
10386;DHT22;34307;51.332;12.334;2022-09-09T22:58:45;15.20;99.90
10386;DHT22;34307;51.332;12.334;2022-09-09T23:01:15;15.20;99.90
10386;DHT22;34307;51.332;12.334;2022-09-09T23:03:46;15.20;99.90
10386;DHT22;34307;51.332;12.334;2022-09-09T23:06:16;15.10;99.90
10386;DHT22;34307;51.332;12.334;2022-09-09T23:08:46;15.10;99.90
10386;DHT22;34307;51.332;12.334;2022-09-09T23:11:16;15.00;99.90
10386;DHT22;34307;51.332;12.334;2022-09-09T23:13:49;15.00;99.90
10386;DHT22;34307;51.332;12.334;2022-09-09T23:16:20;15.00;99.90
10386;DHT22;34307;51.332;12.334;2022-09-09T23:18:49;15.00;99.90
10386;DHT22;34307;51.332;12.334;2022-09-09T23:21:18;15.00;99.90
10386;DHT22;34307;51.332;12.334;2022-09-09T23:23:46;15.00;99.90
10386;DHT22;34307;51.332;12.334;2022-09-09T23:26:15;15.00;99.90
10386;DHT22;34307;51.332;12.334;2022-09-09T23:28:49;15.00;99.90
10386;DHT22;34307;51.332;12.334;2022-09-09T23:31:19;14.90;99.90
10386;DHT22;34307;51.332;12.334;2022-09-09T23:33:48;14.90;99.90
10386;DHT22;34307;51.332;12.334;2022-09-09T23:36:18;14.90;99.90
10386;DHT22;34307;51.332;12.334;2022-09-09T23:38:46;14.80;99.90
10386;DHT22;34307;51.332;12.334;2022-09-09T23:41:16;14.80;99.90
10386;DHT22;34307;51.332;12.334;2022-09-09T23:43:45;14.90;99.90
10386;DHT22;34307;51.332;12.334;2022-09-09T23:46:17;14.80;99.90
10386;DHT22;34307;51.332;12.334;2022-09-09T23:48:47;14.80;99.90
10386;DHT22;34307;51.332;12.334;2022-09-09T23:51:19;14.70;99.90
10386;DHT22;34307;51.332;12.334;2022-09-09T23:53:51;14.70;99.90
10386;DHT22;34307;51.332;12.334;2022-09-09T23:56:20;14.70;99.90
10386;DHT22;34307;51.332;12.334;2022-09-09T23:58:49;14.60;99.90
